KPCD/PCD METAR and TAF weather

Enter ICAO airport designator
Station Type Date Time Source
KPCD METAR 2022/12/08 12:55 UTC NOAA

KPCD 081255Z AUTO 08003KT 3SM RA OVC008 07/07 A3023 RMK AO2 P0004 T00710071


Station Type Date Time Source
KPCD Decoded METAR 2022/12/08 12:55 UTC NOAA

Station name not available
Dec 08, 2022 - 07:55 AM EST / 2022.12.08 1255 UTC
Wind: from the E (080 degrees) at 3 MPH (3 KT):0
Visibility: 3 mile(s):0
Sky conditions: overcast
Weather: rain
Precipitation last hour: 0.04 inches
Temperature: 44.8 F (7.1 C)
Dew Point: 44.8 F (7.1 C)
Relative Humidity: 100%
Pressure (altimeter): 30.23 in. Hg (1023 hPa)
ob: KPCD 081255Z AUTO 08003KT 3SM RA OVC008 07/07 A3023 RMK AO2 P0004 T00710071
cycle: 13

Station Type Date Time Source
KPCD TAF UTC NOAA

Error!

Example: see airport list